PAFR METAR and TAF weather

Enter ICAO airport designator
Station Type Date Time Source
PAFR METAR 2019/06/17 13:58 UTC NOAA

PAFR 171358Z AUTO 00000KT 10SM CLR 06/06 A2963 RMK AO2 SLP040 T00640060


Station Type Date Time Source
PAFR Decoded METAR 2019/06/17 13:58 UTC NOAA

Ft. Richardson / Bryant U. S. Army Heliport, Ak, AK, United States (PAFR) 61-16N 149-39W 115M
Jun 17, 2019 - 09:58 AM EDT / 2019.06.17 1358 UTC
Wind: Calm:0
Visibility: 10 mile(s):0
Sky conditions: clear
Temperature: 43.5 F (6.4 C)
Dew Point: 42.8 F (6.0 C)
Relative Humidity: 97%
Pressure (altimeter): 29.63 in. Hg (1003 hPa)
ob: PAFR 171358Z AUTO 00000KT 10SM CLR 06/06 A2963 RMK AO2 SLP040 T00640060
cycle: 14

Station Type Date Time Source
PAFR TAF UTC NOAA

Error!

Example: see airport list